KYKN/YKN METAR and TAF weather

Enter ICAO airport designator
Station Type Date Time Source
KYKN METAR 2021/08/05 03:56 UTC NOAA

KYKN 050356Z AUTO 13005KT 10SM -RA FEW065 BKN110 22/19 A2999 RMK AO2 LTG DSNT SE SLP158 P0003 T02170194


Station Type Date Time Source
KYKN Decoded METAR 2021/08/05 03:56 UTC NOAA

Yankton, Chan Gurney Municipal Airport, SD, United States (KYKN) 42-55N 097-23W
Aug 04, 2021 - 11:56 PM EDT / 2021.08.05 0356 UTC
Wind: from the SE (130 degrees) at 6 MPH (5 KT):0
Visibility: 10 mile(s):0
Sky conditions: mostly cloudy
Weather: light rain; Lightning observed
Precipitation last hour: 0.03 inches
Temperature: 71.1 F (21.7 C)
Dew Point: 66.9 F (19.4 C)
Relative Humidity: 86%
Pressure (altimeter): 29.99 in. Hg (1015 hPa)
ob: KYKN 050356Z AUTO 13005KT 10SM -RA FEW065 BKN110 22/19 A2999 RMK AO2 LTG DSNT SE SLP158 P0003 T02170194
cycle: 4

Station Type Date Time Source
KYKN TAF UTC NOAA

Error!

Example: see airport list